sensor_id;sensor_type;location;lat;lon;timestamp;temperature;humidity
3648;DHT22;1840;48.892;15.312;2023-04-03T00:01:13;1.60;95.00
3648;DHT22;1840;48.892;15.312;2023-04-03T00:03:41;1.70;94.90
3648;DHT22;1840;48.892;15.312;2023-04-03T00:06:10;1.70;94.90
3648;DHT22;1840;48.892;15.312;2023-04-03T00:08:40;1.70;94.80
3648;DHT22;1840;48.892;15.312;2023-04-03T00:11:09;1.90;94.80
3648;DHT22;1840;48.892;15.312;2023-04-03T00:13:38;2.00;94.70
3648;DHT22;1840;48.892;15.312;2023-04-03T00:16:06;2.00;94.70
3648;DHT22;1840;48.892;15.312;2023-04-03T00:18:35;2.00;94.40
3648;DHT22;1840;48.892;15.312;2023-04-03T00:21:03;1.90;94.60
3648;DHT22;1840;48.892;15.312;2023-04-03T00:23:32;1.90;94.60
3648;DHT22;1840;48.892;15.312;2023-04-03T00:26:02;1.90;94.60
3648;DHT22;1840;48.892;15.312;2023-04-03T00:28:33;1.80;94.70
3648;DHT22;1840;48.892;15.312;2023-04-03T00:31:02;1.80;94.80
3648;DHT22;1840;48.892;15.312;2023-04-03T00:33:30;1.80;94.80
3648;DHT22;1840;48.892;15.312;2023-04-03T00:35:58;1.80;94.70
3648;DHT22;1840;48.892;15.312;2023-04-03T00:38:26;1.80;94.60
3648;DHT22;1840;48.892;15.312;2023-04-03T00:40:54;1.80;94.80
3648;DHT22;1840;48.892;15.312;2023-04-03T00:43:25;1.90;94.70
3648;DHT22;1840;48.892;15.312;2023-04-03T00:45:54;1.70;95.10
3648;DHT22;1840;48.892;15.312;2023-04-03T00:48:27;1.70;95.00
3648;DHT22;1840;48.892;15.312;2023-04-03T00:50:55;1.70;94.90
3648;DHT22;1840;48.892;15.312;2023-04-03T00:53:26;1.80;94.90
3648;DHT22;1840;48.892;15.312;2023-04-03T00:55:56;1.90;94.80
3648;DHT22;1840;48.892;15.312;2023-04-03T00:58:31;1.90;94.60
3648;DHT22;1840;48.892;15.312;2023-04-03T01:01:05;1.80;94.80
3648;DHT22;1840;48.892;15.312;2023-04-03T01:03:35;1.70;94.80
3648;DHT22;1840;48.892;15.312;2023-04-03T01:06:03;1.70;94.90
3648;DHT22;1840;48.892;15.312;2023-04-03T01:08:31;1.70;94.90
3648;DHT22;1840;48.892;15.312;2023-04-03T01:11:00;1.60;94.90
3648;DHT22;1840;48.892;15.312;2023-04-03T01:13:32;1.70;94.80
3648;DHT22;1840;48.892;15.312;2023-04-03T01:16:01;1.70;94.80
3648;DHT22;1840;48.892;15.312;2023-04-03T01:18:30;1.80;94.80
3648;DHT22;1840;48.892;15.312;2023-04-03T01:24:16;2.00;94.40
3648;DHT22;1840;48.892;15.312;2023-04-03T01:26:46;2.00;94.50
3648;DHT22;1840;48.892;15.312;2023-04-03T01:29:16;1.90;94.30
3648;DHT22;1840;48.892;15.312;2023-04-03T01:31:51;1.80;94.30
3648;DHT22;1840;48.892;15.312;2023-04-03T01:34:19;1.80;94.10
3648;DHT22;1840;48.892;15.312;2023-04-03T01:36:48;1.60;93.70
3648;DHT22;1840;48.892;15.312;2023-04-03T01:39:17;1.50;93.60
3648;DHT22;1840;48.892;15.312;2023-04-03T01:41:45;1.50;93.70
3648;DHT22;1840;48.892;15.312;2023-04-03T01:44:13;1.60;93.60
3648;DHT22;1840;48.892;15.312;2023-04-03T01:46:41;1.60;93.40
3648;DHT22;1840;48.892;15.312;2023-04-03T01:49:11;1.60;93.30
3648;DHT22;1840;48.892;15.312;2023-04-03T01:51:39;1.50;93.40
3648;DHT22;1840;48.892;15.312;2023-04-03T01:54:07;1.60;93.30
3648;DHT22;1840;48.892;15.312;2023-04-03T01:56:35;1.60;93.30
3648;DHT22;1840;48.892;15.312;2023-04-03T01:59:03;1.50;93.30
3648;DHT22;1840;48.892;15.312;2023-04-03T02:01:31;1.40;93.20
3648;DHT22;1840;48.892;15.312;2023-04-03T02:03:59;1.30;93.00
3648;DHT22;1840;48.892;15.312;2023-04-03T02:06:29;1.20;93.40
3648;DHT22;1840;48.892;15.312;2023-04-03T02:08:57;1.20;93.50
3648;DHT22;1840;48.892;15.312;2023-04-03T02:11:25;1.20;93.40
3648;DHT22;1840;48.892;15.312;2023-04-03T02:13:53;1.20;93.40
3648;DHT22;1840;48.892;15.312;2023-04-03T02:16:21;1.30;93.30
3648;DHT22;1840;48.892;15.312;2023-04-03T02:18:49;1.40;92.90
3648;DHT22;1840;48.892;15.312;2023-04-03T02:21:17;1.50;93.00
3648;DHT22;1840;48.892;15.312;2023-04-03T02:23:47;1.50;92.90
3648;DHT22;1840;48.892;15.312;2023-04-03T02:26:16;1.50;92.90
3648;DHT22;1840;48.892;15.312;2023-04-03T02:28:44;1.50;93.10
3648;DHT22;1840;48.892;15.312;2023-04-03T02:31:13;1.40;93.10
3648;DHT22;1840;48.892;15.312;2023-04-03T02:33:41;1.50;93.10
3648;DHT22;1840;48.892;15.312;2023-04-03T02:36:09;1.50;93.20
3648;DHT22;1840;48.892;15.312;2023-04-03T02:38:37;1.60;93.20
3648;DHT22;1840;48.892;15.312;2023-04-03T02:41:08;1.50;93.10
3648;DHT22;1840;48.892;15.312;2023-04-03T02:43:37;1.50;93.10
3648;DHT22;1840;48.892;15.312;2023-04-03T02:46:06;1.40;93.20
3648;DHT22;1840;48.892;15.312;2023-04-03T02:48:34;1.40;93.30
3648;DHT22;1840;48.892;15.312;2023-04-03T02:51:03;1.40;93.30
3648;DHT22;1840;48.892;15.312;2023-04-03T02:53:31;1.40;93.30
3648;DHT22;1840;48.892;15.312;2023-04-03T02:55:59;1.50;93.10
3648;DHT22;1840;48.892;15.312;2023-04-03T02:58:28;1.50;93.10
3648;DHT22;1840;48.892;15.312;2023-04-03T03:00:56;1.40;92.80
3648;DHT22;1840;48.892;15.312;2023-04-03T03:03:24;1.30;93.00
3648;DHT22;1840;48.892;15.312;2023-04-03T03:06:01;1.30;93.00
3648;DHT22;1840;48.892;15.312;2023-04-03T03:08:29;1.20;93.10
3648;DHT22;1840;48.892;15.312;2023-04-03T03:10:57;1.20;92.80
3648;DHT22;1840;48.892;15.312;2023-04-03T03:13:27;1.10;92.50
3648;DHT22;1840;48.892;15.312;2023-04-03T03:15:55;1.10;92.20
3648;DHT22;1840;48.892;15.312;2023-04-03T03:18:24;0.90;91.90
3648;DHT22;1840;48.892;15.312;2023-04-03T03:20:52;0.90;92.00
3648;DHT22;1840;48.892;15.312;2023-04-03T03:23:24;1.00;91.60
3648;DHT22;1840;48.892;15.312;2023-04-03T03:25:55;1.00;91.80
3648;DHT22;1840;48.892;15.312;2023-04-03T03:28:23;1.10;91.60
3648;DHT22;1840;48.892;15.312;2023-04-03T03:30:53;1.10;91.60
3648;DHT22;1840;48.892;15.312;2023-04-03T03:33:21;1.00;91.40
3648;DHT22;1840;48.892;15.312;2023-04-03T03:35:49;0.90;90.90
3648;DHT22;1840;48.892;15.312;2023-04-03T03:38:18;0.80;91.30
3648;DHT22;1840;48.892;15.312;2023-04-03T03:40:47;1.00;91.20
3648;DHT22;1840;48.892;15.312;2023-04-03T03:43:15;1.00;91.50
3648;DHT22;1840;48.892;15.312;2023-04-03T03:45:44;1.10;91.60
3648;DHT22;1840;48.892;15.312;2023-04-03T03:48:15;1.20;91.70
3648;DHT22;1840;48.892;15.312;2023-04-03T03:50:43;1.20;91.80
3648;DHT22;1840;48.892;15.312;2023-04-03T03:53:11;1.30;91.90
3648;DHT22;1840;48.892;15.312;2023-04-03T03:55:39;1.20;92.00
3648;DHT22;1840;48.892;15.312;2023-04-03T03:58:07;1.30;92.30
3648;DHT22;1840;48.892;15.312;2023-04-03T04:00:36;1.20;92.20
3648;DHT22;1840;48.892;15.312;2023-04-03T04:03:04;1.30;92.30
3648;DHT22;1840;48.892;15.312;2023-04-03T04:05:34;1.20;92.30
3648;DHT22;1840;48.892;15.312;2023-04-03T04:08:03;1.20;92.30
3648;DHT22;1840;48.892;15.312;2023-04-03T04:10:31;1.20;92.40
3648;DHT22;1840;48.892;15.312;2023-04-03T04:13:00;1.10;92.60
3648;DHT22;1840;48.892;15.312;2023-04-03T04:15:28;1.00;92.60
3648;DHT22;1840;48.892;15.312;2023-04-03T04:17:58;1.00;92.70
3648;DHT22;1840;48.892;15.312;2023-04-03T04:20:26;0.90;92.80
3648;DHT22;1840;48.892;15.312;2023-04-03T04:22:56;0.80;92.90
3648;DHT22;1840;48.892;15.312;2023-04-03T04:25:24;0.90;92.90
3648;DHT22;1840;48.892;15.312;2023-04-03T04:27:52;1.00;92.90
3648;DHT22;1840;48.892;15.312;2023-04-03T04:30:20;1.00;92.90
3648;DHT22;1840;48.892;15.312;2023-04-03T04:32:48;1.10;92.80
3648;DHT22;1840;48.892;15.312;2023-04-03T04:35:16;1.00;92.90
3648;DHT22;1840;48.892;15.312;2023-04-03T04:37:45;1.10;92.80
3648;DHT22;1840;48.892;15.312;2023-04-03T04:40:14;1.10;92.90
3648;DHT22;1840;48.892;15.312;2023-04-03T04:42:42;1.00;93.10
3648;DHT22;1840;48.892;15.312;2023-04-03T04:45:11;1.00;93.00
3648;DHT22;1840;48.892;15.312;2023-04-03T04:47:39;1.10;92.90
3648;DHT22;1840;48.892;15.312;2023-04-03T04:50:07;1.00;93.20
3648;DHT22;1840;48.892;15.312;2023-04-03T04:52:36;0.90;93.30
3648;DHT22;1840;48.892;15.312;2023-04-03T04:55:05;1.00;93.30
3648;DHT22;1840;48.892;15.312;2023-04-03T04:57:35;0.90;93.20
3648;DHT22;1840;48.892;15.312;2023-04-03T05:00:05;1.00;93.20
3648;DHT22;1840;48.892;15.312;2023-04-03T05:02:33;1.00;93.20
3648;DHT22;1840;48.892;15.312;2023-04-03T05:05:02;1.10;93.20
3648;DHT22;1840;48.892;15.312;2023-04-03T05:07:31;1.00;93.30
3648;DHT22;1840;48.892;15.312;2023-04-03T05:09:59;1.00;93.30
3648;DHT22;1840;48.892;15.312;2023-04-03T05:12:27;0.90;93.30
3648;DHT22;1840;48.892;15.312;2023-04-03T05:14:57;0.90;93.60
3648;DHT22;1840;48.892;15.312;2023-04-03T05:17:25;0.90;93.60
3648;DHT22;1840;48.892;15.312;2023-04-03T05:19:53;0.70;93.90
3648;DHT22;1840;48.892;15.312;2023-04-03T05:22:21;0.70;93.70
3648;DHT22;1840;48.892;15.312;2023-04-03T05:24:50;0.80;93.70
3648;DHT22;1840;48.892;15.312;2023-04-03T05:27:18;0.80;93.90
3648;DHT22;1840;48.892;15.312;2023-04-03T05:29:46;0.90;93.80
3648;DHT22;1840;48.892;15.312;2023-04-03T05:32:16;0.90;93.60
3648;DHT22;1840;48.892;15.312;2023-04-03T05:34:45;0.90;93.60
3648;DHT22;1840;48.892;15.312;2023-04-03T05:37:13;0.80;93.50
3648;DHT22;1840;48.892;15.312;2023-04-03T05:39:41;0.80;93.40
3648;DHT22;1840;48.892;15.312;2023-04-03T05:42:09;0.70;93.40
3648;DHT22;1840;48.892;15.312;2023-04-03T05:44:38;0.50;93.40
3648;DHT22;1840;48.892;15.312;2023-04-03T05:47:07;0.40;93.70
3648;DHT22;1840;48.892;15.312;2023-04-03T05:49:37;0.50;93.70
3648;DHT22;1840;48.892;15.312;2023-04-03T05:52:11;0.60;93.60
3648;DHT22;1840;48.892;15.312;2023-04-03T05:54:45;0.70;93.40
3648;DHT22;1840;48.892;15.312;2023-04-03T05:57:15;0.50;93.70
3648;DHT22;1840;48.892;15.312;2023-04-03T05:59:44;0.40;93.90
3648;DHT22;1840;48.892;15.312;2023-04-03T06:02:15;0.30;93.90
3648;DHT22;1840;48.892;15.312;2023-04-03T06:04:45;0.30;94.00
3648;DHT22;1840;48.892;15.312;2023-04-03T06:07:16;0.20;94.10
3648;DHT22;1840;48.892;15.312;2023-04-03T06:09:46;0.10;94.00
3648;DHT22;1840;48.892;15.312;2023-04-03T06:12:14;-0.10;94.00
3648;DHT22;1840;48.892;15.312;2023-04-03T06:14:43;-0.10;93.90
3648;DHT22;1840;48.892;15.312;2023-04-03T06:17:13;-0.30;94.10
3648;DHT22;1840;48.892;15.312;2023-04-03T06:19:42;-0.20;94.00
3648;DHT22;1840;48.892;15.312;2023-04-03T06:22:11;-0.10;94.00
3648;DHT22;1840;48.892;15.312;2023-04-03T06:24:40;0.10;93.80
3648;DHT22;1840;48.892;15.312;2023-04-03T06:27:09;0.20;94.00
3648;DHT22;1840;48.892;15.312;2023-04-03T06:29:37;0.30;93.70
3648;DHT22;1840;48.892;15.312;2023-04-03T06:32:06;0.40;93.60
3648;DHT22;1840;48.892;15.312;2023-04-03T06:34:34;0.40;93.60
3648;DHT22;1840;48.892;15.312;2023-04-03T06:37:02;0.40;93.50
3648;DHT22;1840;48.892;15.312;2023-04-03T06:39:32;0.40;93.70
3648;DHT22;1840;48.892;15.312;2023-04-03T06:42:00;0.30;93.50
3648;DHT22;1840;48.892;15.312;2023-04-03T06:44:28;0.30;93.40
3648;DHT22;1840;48.892;15.312;2023-04-03T06:46:56;0.20;93.40
3648;DHT22;1840;48.892;15.312;2023-04-03T06:49:24;0.10;93.20
3648;DHT22;1840;48.892;15.312;2023-04-03T06:51:52;0.20;92.80
3648;DHT22;1840;48.892;15.312;2023-04-03T06:54:21;0.40;92.70
3648;DHT22;1840;48.892;15.312;2023-04-03T06:56:50;0.40;92.60
3648;DHT22;1840;48.892;15.312;2023-04-03T06:59:20;0.40;92.50
3648;DHT22;1840;48.892;15.312;2023-04-03T07:01:48;0.30;92.50
3648;DHT22;1840;48.892;15.312;2023-04-03T07:04:16;0.20;92.60
3648;DHT22;1840;48.892;15.312;2023-04-03T07:06:47;0.30;92.30
3648;DHT22;1840;48.892;15.312;2023-04-03T07:09:16;0.30;92.10
3648;DHT22;1840;48.892;15.312;2023-04-03T07:11:44;0.50;92.90
3648;DHT22;1840;48.892;15.312;2023-04-03T07:14:14;0.90;91.80
3648;DHT22;1840;48.892;15.312;2023-04-03T07:16:42;0.80;91.30
3648;DHT22;1840;48.892;15.312;2023-04-03T07:19:10;0.80;91.60
3648;DHT22;1840;48.892;15.312;2023-04-03T07:21:38;0.90;92.00
3648;DHT22;1840;48.892;15.312;2023-04-03T07:24:08;1.40;91.40
3648;DHT22;1840;48.892;15.312;2023-04-03T07:26:41;1.20;90.50
3648;DHT22;1840;48.892;15.312;2023-04-03T07:29:12;1.40;91.30
3648;DHT22;1840;48.892;15.312;2023-04-03T07:31:42;1.00;90.60
3648;DHT22;1840;48.892;15.312;2023-04-03T07:34:12;0.50;90.90
3648;DHT22;1840;48.892;15.312;2023-04-03T07:36:40;0.20;91.50
3648;DHT22;1840;48.892;15.312;2023-04-03T07:39:08;0.30;91.60
3648;DHT22;1840;48.892;15.312;2023-04-03T07:41:37;0.70;92.40
3648;DHT22;1840;48.892;15.312;2023-04-03T07:44:06;1.20;91.60
3648;DHT22;1840;48.892;15.312;2023-04-03T07:46:36;1.30;91.70
3648;DHT22;1840;48.892;15.312;2023-04-03T07:49:06;1.10;91.10
3648;DHT22;1840;48.892;15.312;2023-04-03T07:51:34;1.00;91.80
3648;DHT22;1840;48.892;15.312;2023-04-03T07:54:03;1.10;90.80
3648;DHT22;1840;48.892;15.312;2023-04-03T07:56:31;1.00;91.10
3648;DHT22;1840;48.892;15.312;2023-04-03T07:59:00;0.70;91.00
3648;DHT22;1840;48.892;15.312;2023-04-03T08:01:28;0.70;91.20
3648;DHT22;1840;48.892;15.312;2023-04-03T08:03:59;1.10;91.10
3648;DHT22;1840;48.892;15.312;2023-04-03T08:06:31;1.00;91.00
3648;DHT22;1840;48.892;15.312;2023-04-03T08:09:12;0.70;90.40
3648;DHT22;1840;48.892;15.312;2023-04-03T08:11:41;0.50;90.50
3648;DHT22;1840;48.892;15.312;2023-04-03T08:14:09;0.60;89.80
3648;DHT22;1840;48.892;15.312;2023-04-03T08:16:43;0.80;91.30
3648;DHT22;1840;48.892;15.312;2023-04-03T08:19:12;1.40;90.80
3648;DHT22;1840;48.892;15.312;2023-04-03T08:21:54;1.60;90.50
3648;DHT22;1840;48.892;15.312;2023-04-03T08:24:23;1.40;90.10
3648;DHT22;1840;48.892;15.312;2023-04-03T08:26:51;1.20;89.10
3648;DHT22;1840;48.892;15.312;2023-04-03T08:29:20;0.90;90.40
3648;DHT22;1840;48.892;15.312;2023-04-03T08:31:48;0.70;89.80
3648;DHT22;1840;48.892;15.312;2023-04-03T08:34:17;0.60;90.00
3648;DHT22;1840;48.892;15.312;2023-04-03T08:36:46;0.40;89.50
3648;DHT22;1840;48.892;15.312;2023-04-03T08:39:15;0.50;90.80
3648;DHT22;1840;48.892;15.312;2023-04-03T08:41:44;0.60;90.20
3648;DHT22;1840;48.892;15.312;2023-04-03T08:44:19;0.70;90.10
3648;DHT22;1840;48.892;15.312;2023-04-03T08:47:01;0.60;91.50
3648;DHT22;1840;48.892;15.312;2023-04-03T08:49:33;0.90;90.20
3648;DHT22;1840;48.892;15.312;2023-04-03T08:52:08;0.70;90.60
3648;DHT22;1840;48.892;15.312;2023-04-03T08:54:48;0.70;90.80
3648;DHT22;1840;48.892;15.312;2023-04-03T08:57:20;0.80;90.10
3648;DHT22;1840;48.892;15.312;2023-04-03T08:59:50;0.80;90.60
3648;DHT22;1840;48.892;15.312;2023-04-03T09:02:25;1.10;90.40
3648;DHT22;1840;48.892;15.312;2023-04-03T09:04:55;2.20;90.30
3648;DHT22;1840;48.892;15.312;2023-04-03T09:07:30;1.90;85.90
3648;DHT22;1840;48.892;15.312;2023-04-03T09:10:02;1.10;87.90
3648;DHT22;1840;48.892;15.312;2023-04-03T09:12:34;0.50;88.00
3648;DHT22;1840;48.892;15.312;2023-04-03T09:15:10;0.20;87.50
3648;DHT22;1840;48.892;15.312;2023-04-03T09:17:58;0.50;86.70
3648;DHT22;1840;48.892;15.312;2023-04-03T09:20:35;0.50;87.20
3648;DHT22;1840;48.892;15.312;2023-04-03T09:23:17;1.10;88.70
3648;DHT22;1840;48.892;15.312;2023-04-03T09:25:47;1.40;85.00
3648;DHT22;1840;48.892;15.312;2023-04-03T09:28:16;1.30;81.70
3648;DHT22;1840;48.892;15.312;2023-04-03T09:30:45;1.40;85.50
3648;DHT22;1840;48.892;15.312;2023-04-03T09:33:14;1.40;82.80
3648;DHT22;1840;48.892;15.312;2023-04-03T09:35:42;1.50;85.60
3648;DHT22;1840;48.892;15.312;2023-04-03T09:38:19;1.40;82.10
3648;DHT22;1840;48.892;15.312;2023-04-03T09:40:51;0.70;80.20
3648;DHT22;1840;48.892;15.312;2023-04-03T09:43:32;0.70;83.30
3648;DHT22;1840;48.892;15.312;2023-04-03T09:46:24;0.60;85.00
3648;DHT22;1840;48.892;15.312;2023-04-03T09:48:56;0.50;81.10
3648;DHT22;1840;48.892;15.312;2023-04-03T09:51:35;0.60;83.50
3648;DHT22;1840;48.892;15.312;2023-04-03T09:54:25;0.90;85.30
3648;DHT22;1840;48.892;15.312;2023-04-03T09:57:06;0.90;83.90
3648;DHT22;1840;48.892;15.312;2023-04-03T09:59:34;0.70;83.90
3648;DHT22;1840;48.892;15.312;2023-04-03T10:02:13;0.70;82.80
3648;DHT22;1840;48.892;15.312;2023-04-03T10:04:44;0.50;81.70
3648;DHT22;1840;48.892;15.312;2023-04-03T10:07:28;0.70;83.40
3648;DHT22;1840;48.892;15.312;2023-04-03T10:09:57;1.20;85.40
3648;DHT22;1840;48.892;15.312;2023-04-03T10:12:26;1.40;85.90
3648;DHT22;1840;48.892;15.312;2023-04-03T10:14:56;1.00;83.20
3648;DHT22;1840;48.892;15.312;2023-04-03T10:17:36;0.60;82.10
3648;DHT22;1840;48.892;15.312;2023-04-03T10:20:12;0.50;83.10
3648;DHT22;1840;48.892;15.312;2023-04-03T10:22:59;0.60;85.10
3648;DHT22;1840;48.892;15.312;2023-04-03T10:25:32;0.80;85.00
3648;DHT22;1840;48.892;15.312;2023-04-03T10:28:06;0.80;85.20
3648;DHT22;1840;48.892;15.312;2023-04-03T10:30:44;0.80;83.20
3648;DHT22;1840;48.892;15.312;2023-04-03T10:33:30;0.80;83.60
3648;DHT22;1840;48.892;15.312;2023-04-03T10:36:12;0.90;82.50
3648;DHT22;1840;48.892;15.312;2023-04-03T10:38:48;1.50;80.70
3648;DHT22;1840;48.892;15.312;2023-04-03T10:41:25;1.70;79.50
3648;DHT22;1840;48.892;15.312;2023-04-03T10:44:07;1.70;80.50
3648;DHT22;1840;48.892;15.312;2023-04-03T10:46:41;1.60;79.80
3648;DHT22;1840;48.892;15.312;2023-04-03T10:49:26;1.90;80.10
3648;DHT22;1840;48.892;15.312;2023-04-03T10:52:02;2.50;80.90
3648;DHT22;1840;48.892;15.312;2023-04-03T10:54:36;2.20;76.20
3648;DHT22;1840;48.892;15.312;2023-04-03T10:57:09;1.70;78.10
3648;DHT22;1840;48.892;15.312;2023-04-03T10:59:45;1.40;81.50
3648;DHT22;1840;48.892;15.312;2023-04-03T11:02:23;1.10;78.60
3648;DHT22;1840;48.892;15.312;2023-04-03T11:05:01;0.90;80.20
3648;DHT22;1840;48.892;15.312;2023-04-03T11:07:33;1.30;78.50
3648;DHT22;1840;48.892;15.312;2023-04-03T11:10:11;2.00;78.90
3648;DHT22;1840;48.892;15.312;2023-04-03T11:12:44;2.20;78.00
3648;DHT22;1840;48.892;15.312;2023-04-03T11:15:16;2.10;79.10
3648;DHT22;1840;48.892;15.312;2023-04-03T11:17:48;1.50;79.20
3648;DHT22;1840;48.892;15.312;2023-04-03T11:20:19;1.10;79.50
3648;DHT22;1840;48.892;15.312;2023-04-03T11:22:58;1.20;79.50
3648;DHT22;1840;48.892;15.312;2023-04-03T11:25:29;1.10;79.10
3648;DHT22;1840;48.892;15.312;2023-04-03T11:28:00;1.20;77.60
3648;DHT22;1840;48.892;15.312;2023-04-03T11:30:36;1.20;75.80
3648;DHT22;1840;48.892;15.312;2023-04-03T11:33:24;2.00;78.40
3648;DHT22;1840;48.892;15.312;2023-04-03T11:35:59;2.70;79.60
3648;DHT22;1840;48.892;15.312;2023-04-03T11:38:42;2.70;77.00
3648;DHT22;1840;48.892;15.312;2023-04-03T11:41:12;2.40;75.00
3648;DHT22;1840;48.892;15.312;2023-04-03T11:43:43;2.10;75.50
3648;DHT22;1840;48.892;15.312;2023-04-03T11:46:51;2.10;75.50
3648;DHT22;1840;48.892;15.312;2023-04-03T11:49:57;2.30;74.10
3648;DHT22;1840;48.892;15.312;2023-04-03T11:53:01;2.70;71.30
3648;DHT22;1840;48.892;15.312;2023-04-03T11:55:52;2.90;72.50
3648;DHT22;1840;48.892;15.312;2023-04-03T11:58:23;3.50;68.90
3648;DHT22;1840;48.892;15.312;2023-04-03T12:01:10;3.60;69.10
3648;DHT22;1840;48.892;15.312;2023-04-03T12:04:08;3.00;72.60
3648;DHT22;1840;48.892;15.312;2023-04-03T12:09:58;1.60;73.90
3648;DHT22;1840;48.892;15.312;2023-04-03T12:12:36;1.50;75.90
3648;DHT22;1840;48.892;15.312;2023-04-03T12:18:31;2.60;74.40
3648;DHT22;1840;48.892;15.312;2023-04-03T12:21:01;2.70;72.90
3648;DHT22;1840;48.892;15.312;2023-04-03T12:23:31;2.60;71.70
3648;DHT22;1840;48.892;15.312;2023-04-03T12:26:18;2.30;70.40
3648;DHT22;1840;48.892;15.312;2023-04-03T12:28:50;2.70;73.90
3648;DHT22;1840;48.892;15.312;2023-04-03T12:31:20;2.40;74.80
3648;DHT22;1840;48.892;15.312;2023-04-03T12:34:17;2.20;74.30
3648;DHT22;1840;48.892;15.312;2023-04-03T12:36:56;2.30;72.90
3648;DHT22;1840;48.892;15.312;2023-04-03T12:39:47;2.80;73.90
3648;DHT22;1840;48.892;15.312;2023-04-03T12:42:34;2.90;74.00
3648;DHT22;1840;48.892;15.312;2023-04-03T12:45:14;2.50;73.90
3648;DHT22;1840;48.892;15.312;2023-04-03T12:47:43;2.00;72.80
3648;DHT22;1840;48.892;15.312;2023-04-03T12:50:18;2.20;72.40
3648;DHT22;1840;48.892;15.312;2023-04-03T12:52:52;2.50;75.20
3648;DHT22;1840;48.892;15.312;2023-04-03T12:55:23;2.30;72.40
3648;DHT22;1840;48.892;15.312;2023-04-03T12:57:51;2.20;71.00
3648;DHT22;1840;48.892;15.312;2023-04-03T13:00:31;2.30;74.10
3648;DHT22;1840;48.892;15.312;2023-04-03T13:03:01;2.60;73.20
3648;DHT22;1840;48.892;15.312;2023-04-03T13:05:31;2.80;72.30
3648;DHT22;1840;48.892;15.312;2023-04-03T13:08:07;2.10;69.50
3648;DHT22;1840;48.892;15.312;2023-04-03T13:10:49;1.50;69.90
3648;DHT22;1840;48.892;15.312;2023-04-03T13:13:19;2.10;72.40
3648;DHT22;1840;48.892;15.312;2023-04-03T13:15:48;2.30;73.10
3648;DHT22;1840;48.892;15.312;2023-04-03T13:18:29;1.90;73.00
3648;DHT22;1840;48.892;15.312;2023-04-03T13:21:03;1.50;71.80
3648;DHT22;1840;48.892;15.312;2023-04-03T13:23:36;1.40;73.50
3648;DHT22;1840;48.892;15.312;2023-04-03T13:26:07;1.20;72.40
3648;DHT22;1840;48.892;15.312;2023-04-03T13:28:36;1.10;72.60
3648;DHT22;1840;48.892;15.312;2023-04-03T13:31:08;1.50;74.70
3648;DHT22;1840;48.892;15.312;2023-04-03T13:33:38;1.60;73.00
3648;DHT22;1840;48.892;15.312;2023-04-03T13:36:09;1.40;73.10
3648;DHT22;1840;48.892;15.312;2023-04-03T13:38:44;1.40;73.90
3648;DHT22;1840;48.892;15.312;2023-04-03T13:41:26;1.40;72.80
3648;DHT22;1840;48.892;15.312;2023-04-03T13:43:57;1.40;72.30
3648;DHT22;1840;48.892;15.312;2023-04-03T13:46:42;1.00;75.20
3648;DHT22;1840;48.892;15.312;2023-04-03T13:49:21;0.80;75.40
3648;DHT22;1840;48.892;15.312;2023-04-03T13:51:49;0.60;73.60
3648;DHT22;1840;48.892;15.312;2023-04-03T13:54:36;0.60;75.60
3648;DHT22;1840;48.892;15.312;2023-04-03T13:57:12;0.80;75.30
3648;DHT22;1840;48.892;15.312;2023-04-03T13:59:41;0.90;76.80
3648;DHT22;1840;48.892;15.312;2023-04-03T14:02:15;0.70;75.90
3648;DHT22;1840;48.892;15.312;2023-04-03T14:04:53;0.70;77.80
3648;DHT22;1840;48.892;15.312;2023-04-03T14:07:25;0.80;77.30
3648;DHT22;1840;48.892;15.312;2023-04-03T14:09:55;0.60;75.30
3648;DHT22;1840;48.892;15.312;2023-04-03T14:12:26;0.50;75.00
3648;DHT22;1840;48.892;15.312;2023-04-03T14:14:58;0.70;77.40
3648;DHT22;1840;48.892;15.312;2023-04-03T14:17:27;0.70;75.60
3648;DHT22;1840;48.892;15.312;2023-04-03T14:19:56;0.70;76.10
3648;DHT22;1840;48.892;15.312;2023-04-03T14:22:27;0.70;76.50
3648;DHT22;1840;48.892;15.312;2023-04-03T14:24:58;0.70;76.40
3648;DHT22;1840;48.892;15.312;2023-04-03T14:27:28;0.90;76.60
3648;DHT22;1840;48.892;15.312;2023-04-03T14:29:58;0.80;74.90
3648;DHT22;1840;48.892;15.312;2023-04-03T14:32:27;0.70;75.00
3648;DHT22;1840;48.892;15.312;2023-04-03T14:34:56;0.80;77.30
3648;DHT22;1840;48.892;15.312;2023-04-03T14:37:27;0.70;75.90
3648;DHT22;1840;48.892;15.312;2023-04-03T14:39:59;0.50;75.20
3648;DHT22;1840;48.892;15.312;2023-04-03T14:42:30;0.30;76.00
3648;DHT22;1840;48.892;15.312;2023-04-03T14:44:59;0.40;76.30
3648;DHT22;1840;48.892;15.312;2023-04-03T14:47:29;0.50;75.10
3648;DHT22;1840;48.892;15.312;2023-04-03T14:49:59;0.50;74.70
3648;DHT22;1840;48.892;15.312;2023-04-03T14:52:29;0.50;74.70
3648;DHT22;1840;48.892;15.312;2023-04-03T14:54:59;0.50;74.60
3648;DHT22;1840;48.892;15.312;2023-04-03T14:57:28;0.50;75.80
3648;DHT22;1840;48.892;15.312;2023-04-03T14:59:57;0.50;76.30
3648;DHT22;1840;48.892;15.312;2023-04-03T15:02:29;0.50;77.10
3648;DHT22;1840;48.892;15.312;2023-04-03T15:04:59;0.30;75.30
3648;DHT22;1840;48.892;15.312;2023-04-03T15:07:29;0.20;76.10
3648;DHT22;1840;48.892;15.312;2023-04-03T15:10:17;0.30;77.80
3648;DHT22;1840;48.892;15.312;2023-04-03T15:12:46;0.40;74.70
3648;DHT22;1840;48.892;15.312;2023-04-03T15:15:15;0.30;75.90
3648;DHT22;1840;48.892;15.312;2023-04-03T15:17:44;0.30;74.70
3648;DHT22;1840;48.892;15.312;2023-04-03T15:20:14;0.40;75.70
3648;DHT22;1840;48.892;15.312;2023-04-03T15:22:43;0.30;74.60
3648;DHT22;1840;48.892;15.312;2023-04-03T15:25:12;0.40;75.60
3648;DHT22;1840;48.892;15.312;2023-04-03T15:27:41;0.30;75.40
3648;DHT22;1840;48.892;15.312;2023-04-03T15:30:14;0.30;76.10
3648;DHT22;1840;48.892;15.312;2023-04-03T15:32:42;0.40;75.70
3648;DHT22;1840;48.892;15.312;2023-04-03T15:35:10;0.40;76.00
3648;DHT22;1840;48.892;15.312;2023-04-03T15:37:38;0.30;76.10
3648;DHT22;1840;48.892;15.312;2023-04-03T15:40:08;0.20;74.60
3648;DHT22;1840;48.892;15.312;2023-04-03T15:42:38;0.30;74.10
3648;DHT22;1840;48.892;15.312;2023-04-03T15:45:07;0.20;74.30
3648;DHT22;1840;48.892;15.312;2023-04-03T15:47:35;0.20;75.00
3648;DHT22;1840;48.892;15.312;2023-04-03T15:50:04;0.20;73.80
3648;DHT22;1840;48.892;15.312;2023-04-03T15:52:34;0.30;74.00
3648;DHT22;1840;48.892;15.312;2023-04-03T15:55:03;0.30;73.50
3648;DHT22;1840;48.892;15.312;2023-04-03T15:57:31;0.40;75.00
3648;DHT22;1840;48.892;15.312;2023-04-03T16:00:00;0.30;73.60
3648;DHT22;1840;48.892;15.312;2023-04-03T16:02:29;0.30;75.90
3648;DHT22;1840;48.892;15.312;2023-04-03T16:04:57;0.20;75.70
3648;DHT22;1840;48.892;15.312;2023-04-03T16:07:25;0.20;74.90
3648;DHT22;1840;48.892;15.312;2023-04-03T16:09:53;0.10;75.20
3648;DHT22;1840;48.892;15.312;2023-04-03T16:12:21;0.10;73.90
3648;DHT22;1840;48.892;15.312;2023-04-03T16:14:49;0.10;74.40
3648;DHT22;1840;48.892;15.312;2023-04-03T16:17:19;0.10;73.70
3648;DHT22;1840;48.892;15.312;2023-04-03T16:19:47;0.20;73.80
3648;DHT22;1840;48.892;15.312;2023-04-03T16:22:15;0.20;71.80
3648;DHT22;1840;48.892;15.312;2023-04-03T16:24:43;0.10;73.30
3648;DHT22;1840;48.892;15.312;2023-04-03T16:27:11;0.20;73.80
3648;DHT22;1840;48.892;15.312;2023-04-03T16:29:39;0.20;74.80
3648;DHT22;1840;48.892;15.312;2023-04-03T16:32:08;0.20;73.60
3648;DHT22;1840;48.892;15.312;2023-04-03T16:34:37;0.20;74.90
3648;DHT22;1840;48.892;15.312;2023-04-03T16:37:07;0.20;73.00
3648;DHT22;1840;48.892;15.312;2023-04-03T16:39:36;0.10;72.10